ADDS METAR Data INFO
IDs: Format: Raw Decoded Include TAF

Data at: 2335 UTC 19 Oct 2017

KGZN 191940Z AUTO 15009G17KT 10SM CLR 26/10 A3008 RMK AO2
KGZN 191920Z AUTO 14014KT 10SM CLR 26/10 A3009 RMK AO2
KGZN 191900Z AUTO 14011G17KT 10SM CLR 26/10 A3010 RMK AO2
KGZN 191840Z AUTO 16012G18KT 10SM CLR 26/10 A3012 RMK AO2
KGZN 191820Z AUTO 17011KT 10SM CLR 25/11 A3013 RMK AO2
KGZN 191800Z AUTO 16010G16KT 10SM CLR 25/12 A3014 RMK AO2
KGZN 191740Z AUTO 15012KT 10SM CLR 24/11 A3015 RMK AO2
KGZN 191720Z AUTO 15010G17KT 10SM CLR 24/12 A3016 RMK AO2
KGZN 191700Z AUTO 16014KT 10SM CLR 24/12 A3017 RMK AO2
KGZN 191640Z AUTO 17013G18KT 10SM CLR 23/12 A3017 RMK AO2
KGZN 191620Z AUTO 16012KT 140V200 10SM CLR 22/12 A3017 RMK AO2
KGZN 191600Z AUTO 16013G18KT 10SM CLR 21/12 A3017 RMK AO2
KGZN 191540Z AUTO 16012G17KT 10SM CLR 21/13 A3017 RMK AO2
KGZN 191520Z AUTO 18012G19KT 10SM CLR 20/13 A3017 RMK AO2
KGZN 191500Z AUTO 17012KT 10SM CLR 19/13 A3017 RMK AO2
KGZN 191440Z AUTO 17009KT 10SM CLR 18/12 A3017 RMK AO2
KGZN 191420Z AUTO 18008KT 10SM CLR 17/11 A3017 RMK AO2
KGZN 191400Z AUTO 16008KT 10SM CLR 15/10 A3015 RMK AO2
KGZN 191340Z AUTO 16004KT 10SM CLR 14/09 A3014 RMK AO2
KGZN 191320Z AUTO 13004KT 10SM CLR 12/09 A3013 RMK AO2
KGZN 191300Z AUTO 16005KT 10SM CLR 12/09 A3013 RMK AO2
KGZN 191240Z AUTO 17007KT 10SM CLR 13/09 A3012 RMK AO2
KGZN 191220Z AUTO 18008KT 10SM CLR 14/09 A3011 RMK AO2
KGZN 191200Z AUTO 17008KT 10SM CLR 14/09 A3011 RMK AO2
KGZN 191140Z AUTO 19007KT 10SM CLR 15/09 A3011 RMK AO2
KGZN 191120Z AUTO 18007KT 10SM CLR 15/09 A3010 RMK AO2
KGZN 191100Z AUTO 18006KT 10SM CLR 15/09 A3010 RMK AO2
KGZN 191040Z AUTO 19006KT 10SM CLR 16/08 A3010 RMK AO2
KGZN 191020Z AUTO 18009KT 10SM CLR 16/08 A3009 RMK AO2
KGZN 191000Z AUTO 18010KT 10SM CLR 16/08 A3008 RMK AO2
KGZN 190940Z AUTO 18010KT 10SM CLR 16/08 A3008 RMK AO2
KGZN 190920Z AUTO 18011KT 10SM CLR 16/08 A3009 RMK AO2
KGZN 190900Z AUTO 18013KT 10SM CLR 16/08 A3009 RMK AO2
KGZN 190840Z AUTO 18012KT 10SM CLR 16/08 A3009 RMK AO2
KGZN 190820Z AUTO 18011KT 10SM CLR 16/08 A3010 RMK AO2
KGZN 190800Z AUTO 18010G15KT 10SM CLR 16/08 A3010 RMK AO2
KGZN 190740Z AUTO 18010KT 10SM CLR 16/08 A3010 RMK AO2
KGZN 190720Z AUTO 18011KT 10SM CLR 16/08 A3011 RMK AO2
KGZN 190700Z AUTO 17009KT 10SM CLR 17/07 A3011 RMK AO2
KGZN 190640Z AUTO 17009G14KT 10SM CLR 17/07 A3011 RMK AO2
KGZN 190620Z AUTO 18010G16KT 10SM CLR 18/07 A3010 RMK AO2
KGZN 190600Z AUTO 18011KT 10SM CLR 18/07 A3010 RMK AO2
KGZN 190540Z AUTO 17010G15KT 10SM CLR 18/07 A3010 RMK AO2
KGZN 190520Z AUTO 17011KT 10SM CLR 18/07 A3010 RMK AO2
KGZN 190500Z AUTO 17010KT 10SM CLR 18/07 A3010 RMK AO2
KGZN 190440Z AUTO 17010KT 10SM CLR 18/07 A3010 RMK AO2
KGZN 190420Z AUTO 16010KT 10SM CLR 18/07 A3010 RMK AO2
KGZN 190400Z AUTO 15011KT 10SM CLR 18/06 A3010 RMK AO2
KGZN 190340Z AUTO 15011KT 10SM CLR 18/06 A3010 RMK AO2
KGZN 190320Z AUTO 15011KT 10SM CLR 18/06 A3009 RMK AO2
KGZN 190300Z AUTO 16011KT 10SM CLR 19/06 A3009 RMK AO2
KGZN 190240Z AUTO 16010KT 10SM CLR 19/06 A3009 RMK AO2
KGZN 190220Z AUTO 15009KT 10SM CLR 20/06 A3009 RMK AO2
KGZN 190200Z AUTO 16009KT 10SM CLR 19/06 A3009 RMK AO2
KGZN 190140Z AUTO 15009KT 10SM CLR 18/05 A3008 RMK AO2
KGZN 190120Z AUTO 13008KT 10SM CLR 19/05 A3008 RMK AO2
KGZN 190100Z AUTO 14006KT 10SM CLR 20/04 A3008 RMK AO2
KGZN 190040Z AUTO 14007KT 10SM CLR 20/04 A3007 RMK AO2
KGZN 190020Z AUTO 14006KT 10SM CLR 21/04 A3006 RMK AO2
KGZN 190000Z AUTO 14006KT 10SM CLR 22/04 A3006 RMK AO2
KGZN 182340Z AUTO 16007KT 10SM CLR 25/03 A3006 RMK AO2
KGZN 182320Z AUTO 16009KT 10SM CLR 26/03 A3005 RMK AO2
KGZN 182300Z AUTO 15006G13KT 10SM CLR 26/04 A3006 RMK AO2
KGZN 182240Z AUTO 18010KT 10SM CLR 27/02 A3005 RMK AO2
KGZN 182220Z AUTO 19008G17KT 10SM CLR 28/01 A3005 RMK AO2
KGZN 182200Z AUTO 17016KT 10SM CLR 28/01 A3005 RMK AO2
KGZN 182140Z AUTO 18016KT 10SM CLR 29/01 A3005 RMK AO2
KGZN 182120Z AUTO 17015G20KT 10SM CLR 28/00 A3005 RMK AO2
KGZN 182100Z AUTO 17013G21KT 10SM CLR 29/01 A3006 RMK AO2
KGZN 182040Z AUTO 16013G21KT 10SM CLR 29/02 A3007 RMK AO2
KGZN 182020Z AUTO 16013KT 10SM CLR 28/03 A3007 RMK AO2
KGZN 182000Z AUTO 9.68000010G18KT 10SM CLR 28/01 A3008 RMK AO2
KGZN 181940Z AUTO 18012KT 10SM CLR 29/M00 A3008 RMK AO2
KGZN 181920Z AUTO 19010G18KT 8SM CLR 28/01 A3010 RMK AO2
KGZN 181900Z AUTO 17013KT 10SM CLR 27/02 A3011 RMK AO2
KGZN 181840Z AUTO 18009G16KT 10SM CLR 27/02 A3012 RMK AO2
KGZN 181820Z AUTO 16013KT 10SM CLR 27/03 A3012 RMK AO2
KGZN 181800Z AUTO 20009G16KT 10SM CLR 26/03 A3013 RMK AO2
KGZN 181740Z AUTO 16010KT 10SM CLR 26/04 A3014 RMK AO2
KGZN 181720Z AUTO 17012KT 10SM CLR 26/05 A3014 RMK AO2
KGZN 181700Z AUTO 19012G17KT 10SM CLR 25/04 A3014 RMK AO2
KGZN 181640Z AUTO 20011G17KT 10SM CLR 24/05 A3014 RMK AO2
KGZN 181620Z AUTO 19012G18KT 10SM CLR 23/06 A3014 RMK AO2
KGZN 181600Z AUTO 19011G19KT 10SM CLR 22/06 A3014 RMK AO2
KGZN 181540Z AUTO 20012G20KT 10SM CLR 21/06 A3014 RMK AO2
KGZN 181520Z AUTO 20014G19KT 10SM CLR 20/06 A3014 RMK AO2
KGZN 181500Z AUTO 20013G20KT 10SM CLR 19/06 A3014 RMK AO2
KGZN 181440Z AUTO 20012G18KT 10SM CLR 18/06 A3014 RMK AO2
KGZN 181420Z AUTO 20013KT 10SM CLR 17/06 A3014 RMK AO2
KGZN 181400Z AUTO 19011G18KT 10SM CLR 15/06 A3013 RMK AO2
KGZN 181340Z AUTO 19010KT 10SM CLR 14/06 A3012 RMK AO2
KGZN 181320Z AUTO 18011KT 10SM CLR 12/06 A3012 RMK AO2
KGZN 181300Z AUTO 18011KT 10SM CLR 11/06 A3011 RMK AO2
KGZN 181240Z AUTO 18011KT 10SM CLR 11/06 A3011 RMK AO2
KGZN 181220Z AUTO 17012KT 10SM CLR 11/06 A3011 RMK AO2
KGZN 181200Z AUTO 18008KT 10SM CLR 11/06 A3011 RMK AO2
KGZN 181140Z AUTO 19007KT 10SM CLR 12/06 A3011 RMK AO2